Time;durP1;ratioP1;P1;durP2;ratioP2;P2;SDS_P1;SDS_P2;PMS_P1;PMS_P2;Temp;Humidity;BMP_temperature;BMP_pressure;BME280_temperature;BME280_humidity;BME280_pressure;Samples;Min_cycle;Max_cycle;Signal;HPM_P1;HPM_P2
2022/12/11 00:00:40;;;;;;;50.95;26.58;;;-2.60;99.90;;;;;;5037676;28;20043;-75
2022/12/11 00:03:06;;;;;;;46.75;26.67;;;-2.70;99.90;;;;;;5040954;28;20036;-75
2022/12/11 00:05:33;;;;;;;49.97;27.63;;;-2.70;99.90;;;;;;5038699;28;20056;-75
2022/12/11 00:07:58;;;;;;;45.03;26.23;;;-2.60;99.90;;;;;;5044589;28;20033;-75
2022/12/11 00:10:25;;;;;;;45.88;26.48;;;-2.60;99.90;;;;;;5035437;28;20036;-74
2022/12/11 00:12:50;;;;;;;49.33;26.92;;;-2.50;99.90;;;;;;5029510;28;20041;-75
2022/12/11 00:15:16;;;;;;;77.72;32.50;;;-2.60;99.90;;;;;;5033666;28;20914;-76
2022/12/11 00:17:42;;;;;;;76.68;33.17;;;-2.60;99.90;;;;;;5041328;28;20491;-76
2022/12/11 00:20:08;;;;;;;69.85;30.98;;;-2.60;99.90;;;;;;5039443;28;20120;-75
2022/12/11 00:22:34;;;;;;;52.13;27.10;;;-2.70;99.90;;;;;;5038392;28;20041;-75
2022/12/11 00:25:00;;;;;;;51.05;26.35;;;-2.70;99.90;;;;;;5028015;28;20033;-75
2022/12/11 00:27:26;;;;;;;42.97;24.33;;;-2.70;99.90;;;;;;5032995;28;20028;-75
2022/12/11 00:29:51;;;;;;;43.92;25.38;;;-2.70;99.90;;;;;;5037767;28;20551;-75
2022/12/11 00:32:17;;;;;;;44.20;24.52;;;-2.70;99.90;;;;;;5028112;28;20044;-75
2022/12/11 00:34:42;;;;;;;56.10;27.02;;;-2.80;99.90;;;;;;5026357;28;20040;-75
2022/12/11 00:37:08;;;;;;;48.83;26.45;;;-2.90;99.90;;;;;;5028123;28;20025;-74
2022/12/11 00:39:34;;;;;;;43.10;23.90;;;-2.90;99.90;;;;;;5033280;28;20061;-74
2022/12/11 00:41:59;;;;;;;42.30;25.80;;;-2.90;99.90;;;;;;5025254;28;20480;-75
2022/12/11 00:44:25;;;;;;;45.90;25.40;;;-2.80;99.90;;;;;;5033055;28;20087;-75
2022/12/11 00:46:51;;;;;;;55.58;26.85;;;-2.90;99.90;;;;;;5032034;28;20075;-75
2022/12/11 00:49:16;;;;;;;50.38;27.23;;;-2.80;99.90;;;;;;5029584;28;20563;-76
2022/12/11 00:51:42;;;;;;;48.30;25.45;;;-2.90;99.90;;;;;;5026339;28;20033;-75
2022/12/11 00:54:07;;;;;;;54.10;26.50;;;-3.00;99.90;;;;;;5028906;28;20128;-75
2022/12/11 00:56:33;;;;;;;45.70;25.73;;;-3.10;99.90;;;;;;5036279;28;20048;-74
2022/12/11 00:58:58;;;;;;;46.90;27.35;;;-3.10;99.90;;;;;;5027974;28;20037;-75
2022/12/11 01:01:24;;;;;;;48.10;27.33;;;-3.10;99.90;;;;;;5034323;28;20447;-75
2022/12/11 01:03:51;;;;;;;47.30;25.98;;;-3.10;99.90;;;;;;5028065;28;20448;-76
2022/12/11 01:06:27;;;;;;;48.20;26.05;;;-3.10;99.90;;;;;;5027488;28;20053;-76
2022/12/11 01:11:38;;;;;;;47.35;27.20;;;-3.20;99.90;;;;;;5033479;28;20137;-75
2022/12/11 01:14:04;;;;;;;63.65;30.38;;;-3.20;99.90;;;;;;5035486;28;20157;-75
2022/12/11 01:16:30;;;;;;;53.75;28.05;;;-3.20;99.90;;;;;;5038438;28;20045;-74
2022/12/11 01:18:56;;;;;;;48.30;27.15;;;-3.30;99.90;;;;;;5035837;28;20043;-74
2022/12/11 01:21:22;;;;;;;47.70;26.80;;;-3.30;99.90;;;;;;5037256;28;20029;-74
2022/12/11 01:23:49;;;;;;;57.53;28.48;;;-3.40;99.90;;;;;;5031945;28;20053;-74
2022/12/11 01:26:15;;;;;;;50.55;26.88;;;-3.40;99.90;;;;;;5038695;28;20491;-74
2022/12/11 01:28:41;;;;;;;50.67;26.20;;;-3.30;99.90;;;;;;5033030;28;20048;-74
2022/12/11 01:31:17;;;;;;;48.88;25.73;;;-3.40;99.90;;;;;;5035232;28;20519;-74
2022/12/11 01:33:43;;;;;;;45.25;25.63;;;-3.40;99.90;;;;;;5031235;28;20113;-75
2022/12/11 01:36:21;;;;;;;42.60;24.73;;;-3.40;99.90;;;;;;5033413;28;20036;-75
2022/12/11 01:38:48;;;;;;;46.95;25.10;;;-3.40;99.90;;;;;;5030834;28;20034;-75
2022/12/11 01:41:14;;;;;;;59.70;29.95;;;-3.30;99.90;;;;;;5033816;28;20120;-74
2022/12/11 01:44:07;;;;;;;57.35;29.40;;;-3.30;99.90;;;;;;5027505;28;20091;-74
2022/12/11 01:46:35;;;;;;;54.60;27.45;;;-3.40;99.90;;;;;;5034352;28;20021;-74
2022/12/11 01:49:04;;;;;;;56.53;28.35;;;-3.50;99.90;;;;;;5030617;28;20033;-75
2022/12/11 01:51:34;;;;;;;55.17;28.40;;;-3.50;99.90;;;;;;5040266;28;20025;-75
2022/12/11 01:54:04;;;;;;;52.50;28.48;;;-3.50;99.90;;;;;;5031728;28;20067;-75
2022/12/11 01:56:31;;;;;;;;;;;-3.40;99.90;;;;;;5040123;28;20029;-75
2022/12/11 01:59:01;;;;;;;54.47;27.90;;;-3.40;99.90;;;;;;5029169;28;19915;-74
2022/12/11 02:01:38;;;;;;;64.25;31.50;;;-3.50;99.90;;;;;;5035843;28;20050;-75
2022/12/11 02:04:05;;;;;;;61.92;30.15;;;-3.40;99.90;;;;;;5038109;28;20458;-73
2022/12/11 02:06:38;;;;;;;65.53;30.67;;;-3.50;99.90;;;;;;5028735;28;20083;-74
2022/12/11 02:09:09;;;;;;;58.03;30.08;;;-3.60;99.90;;;;;;5029024;28;20056;-75
2022/12/11 02:11:49;;;;;;;;;;;-3.60;99.90;;;;;;5037286;28;20443;-75
2022/12/11 02:14:36;;;;;;;57.85;27.05;;;-3.60;99.90;;;;;;5029036;28;19912;-74
2022/12/11 02:17:24;;;;;;;56.75;27.92;;;-3.60;99.90;;;;;;5029402;28;20120;-74
2022/12/11 02:19:56;;;;;;;46.10;23.90;;;-3.60;99.90;;;;;;5027782;28;20037;-74
2022/12/11 02:23:02;;;;;;;52.45;27.73;;;-3.60;99.90;;;;;;5034265;28;20163;-74
2022/12/11 02:25:52;;;;;;;47.80;26.05;;;-3.70;99.90;;;;;;5026612;28;20033;-75
2022/12/11 02:28:21;;;;;;;;;;;-3.70;99.90;;;;;;5034314;28;20120;-75
2022/12/11 02:31:01;;;;;;;43.70;24.95;;;-3.70;99.90;;;;;;5033846;28;19909;-75
2022/12/11 02:33:58;;;;;;;49.88;26.67;;;-3.60;99.90;;;;;;5036085;28;20051;-74
2022/12/11 02:36:27;;;;;;;54.05;26.42;;;-3.60;99.90;;;;;;5028132;28;20021;-74
2022/12/11 02:38:55;;;;;;;57.70;30.83;;;-3.70;99.90;;;;;;5027898;28;20044;-75
2022/12/11 02:41:23;;;;;;;63.08;30.73;;;-3.60;99.90;;;;;;5030616;28;20045;-75
2022/12/11 02:43:50;;;;;;;61.80;31.38;;;-3.60;99.90;;;;;;5029395;28;20128;-75
2022/12/11 02:46:18;;;;;;;64.57;30.30;;;-3.70;99.90;;;;;;5029617;28;20037;-74
2022/12/11 02:48:47;;;;;;;61.88;31.13;;;-3.70;99.90;;;;;;5059075;28;20033;-74
2022/12/11 02:51:17;;;;;;;64.38;30.90;;;-3.70;99.90;;;;;;5029720;28;20145;-75
2022/12/11 02:53:44;;;;;;;60.47;29.77;;;-3.70;99.90;;;;;;5028664;28;20096;-74
2022/12/11 02:56:14;;;;;;;64.20;31.70;;;-3.70;99.90;;;;;;5028594;28;20029;-74
2022/12/11 02:58:48;;;;;;;65.05;33.13;;;-3.70;99.90;;;;;;5030387;28;20135;-74
2022/12/11 03:01:14;;;;;;;62.85;32.08;;;-3.70;99.90;;;;;;5032708;28;20068;-74
2022/12/11 03:03:40;;;;;;;68.22;30.60;;;-3.70;99.90;;;;;;5028634;28;20045;-74
2022/12/11 03:06:08;;;;;;;63.25;32.45;;;-3.70;99.90;;;;;;5033693;28;20036;-74
2022/12/11 03:08:35;;;;;;;60.30;30.73;;;-3.70;99.90;;;;;;5030773;28;20025;-74
2022/12/11 03:11:00;;;;;;;64.70;32.08;;;-3.80;99.90;;;;;;5043820;28;20037;-74
2022/12/11 03:13:26;;;;;;;58.53;30.17;;;-3.80;99.90;;;;;;5029605;28;20388;-74
2022/12/11 03:16:16;;;;;;;62.40;30.85;;;-3.80;99.90;;;;;;5025626;28;20045;-74
2022/12/11 03:19:05;;;;;;;60.95;29.90;;;-3.80;99.90;;;;;;5031183;28;20099;-74
2022/12/11 03:21:43;;;;;;;63.78;30.75;;;-3.80;99.90;;;;;;5029872;28;20484;-74
2022/12/11 03:24:27;;;;;;;70.20;33.15;;;-3.70;99.90;;;;;;5025758;28;20064;-74
2022/12/11 03:26:56;;;;;;;69.45;33.03;;;-3.70;99.90;;;;;;5026244;28;20037;-74
2022/12/11 03:29:31;;;;;;;64.65;32.53;;;-3.60;99.90;;;;;;5034610;28;20036;-74
2022/12/11 03:32:05;;;;;;;69.65;33.60;;;-3.70;99.90;;;;;;5027258;28;20083;-74
2022/12/11 03:34:51;;;;;;;62.65;32.30;;;-3.50;99.90;;;;;;5032678;28;20093;-74
2022/12/11 03:37:20;;;;;;;65.75;33.85;;;-3.50;99.90;;;;;;5027740;28;20033;-73
2022/12/11 03:39:50;;;;;;;63.08;33.75;;;-3.40;99.90;;;;;;5026270;28;20144;-74
2022/12/11 03:42:19;;;;;;;66.53;34.00;;;-3.40;99.90;;;;;;5026422;28;20048;-73
2022/12/11 03:44:48;;;;;;;68.93;34.80;;;-3.40;99.90;;;;;;5027572;28;20407;-74
2022/12/11 03:47:19;;;;;;;68.37;34.87;;;-3.40;99.90;;;;;;5044710;28;20557;-73
2022/12/11 03:49:47;;;;;;;61.22;33.20;;;-3.40;99.90;;;;;;5034954;28;20778;-73
2022/12/11 03:52:14;;;;;;;52.33;31.85;;;-3.30;99.90;;;;;;5036075;28;20120;-74
2022/12/11 03:54:42;;;;;;;49.50;28.98;;;-3.20;99.90;;;;;;5066360;28;20033;-74
2022/12/11 03:57:12;;;;;;;57.10;31.95;;;-3.20;99.90;;;;;;5026997;28;20037;-73
2022/12/11 03:59:37;;;;;;;55.53;30.63;;;-3.20;99.90;;;;;;5027135;28;20041;-73
2022/12/11 04:02:09;;;;;;;60.22;32.45;;;-3.30;99.90;;;;;;5026451;28;20033;-74
2022/12/11 04:04:39;;;;;;;57.03;32.38;;;-3.30;99.90;;;;;;5037439;28;20412;-74
2022/12/11 04:07:05;;;;;;;;;;;-3.40;99.90;;;;;;5029460;28;20336;-74
2022/12/11 04:09:31;;;;;;;53.80;28.60;;;-3.40;99.90;;;;;;5032424;28;20999;-74
2022/12/11 04:11:56;;;;;;;54.42;28.13;;;-3.50;99.90;;;;;;5030023;28;20033;-74
2022/12/11 04:17:06;;;;;;;49.72;28.20;;;-3.50;99.90;;;;;;5035088;28;20044;-74
2022/12/11 04:25:05;;;;;;;45.47;26.73;;;-3.70;99.90;;;;;;5030661;28;20579;-74
2022/12/11 04:27:48;;;;;;;50.30;27.85;;;-3.70;99.90;;;;;;5029655;28;20908;-74
2022/12/11 04:30:20;;;;;;;44.15;26.45;;;-3.80;99.90;;;;;;5026925;28;20044;-74
2022/12/11 04:32:46;;;;;;;52.28;27.88;;;-3.80;99.90;;;;;;5029509;28;20471;-74
2022/12/11 04:35:13;;;;;;;47.67;28.73;;;-3.80;99.90;;;;;;5030103;28;20036;-73
2022/12/11 04:37:39;;;;;;;48.80;28.17;;;-3.90;99.90;;;;;;5025345;28;20045;-73
2022/12/11 04:40:07;;;;;;;47.75;29.08;;;-3.80;99.90;;;;;;5032769;28;20029;-74
2022/12/11 04:42:32;;;;;;;52.17;28.92;;;-3.90;99.90;;;;;;5048509;28;20540;-74
2022/12/11 04:44:58;;;;;;;50.70;28.70;;;-3.80;99.90;;;;;;5062542;28;20067;-73
2022/12/11 04:47:24;;;;;;;50.97;27.85;;;-3.80;99.90;;;;;;5033404;28;20033;-73
2022/12/11 04:49:49;;;;;;;50.63;28.08;;;-3.70;99.90;;;;;;5029166;28;20037;-74
2022/12/11 04:52:16;;;;;;;48.38;28.85;;;-3.80;99.90;;;;;;5029000;28;20395;-73
2022/12/11 04:54:42;;;;;;;48.45;27.85;;;-3.80;99.90;;;;;;5038127;28;20405;-74
2022/12/11 04:57:08;;;;;;;57.10;28.80;;;-3.80;99.90;;;;;;5038124;28;20033;-74
2022/12/11 04:59:33;;;;;;;47.83;27.02;;;-3.80;99.90;;;;;;5044439;28;20029;-74
2022/12/11 05:01:59;;;;;;;47.72;28.13;;;-3.80;99.90;;;;;;5047434;28;20037;-73
2022/12/11 05:04:25;;;;;;;47.80;26.85;;;-3.80;99.90;;;;;;5030028;28;20458;-74
2022/12/11 05:06:50;;;;;;;49.03;25.75;;;-3.90;99.90;;;;;;5043539;28;20029;-74
2022/12/11 05:09:16;;;;;;;44.95;26.15;;;-3.90;99.90;;;;;;5032251;28;20048;-74
2022/12/11 05:11:42;;;;;;;48.08;26.27;;;-3.90;99.90;;;;;;5038535;28;20041;-74
2022/12/11 05:14:08;;;;;;;51.20;26.40;;;-4.00;99.90;;;;;;5036677;28;20033;-73
2022/12/11 05:16:33;;;;;;;50.78;27.92;;;-4.00;99.90;;;;;;5041143;28;20057;-73
2022/12/11 05:18:59;;;;;;;49.40;27.88;;;-4.10;99.90;;;;;;5036780;28;20039;-74
2022/12/11 05:21:24;;;;;;;55.42;28.73;;;-4.10;99.90;;;;;;5034312;28;21679;-74
2022/12/11 05:23:50;;;;;;;58.90;28.63;;;-4.10;99.90;;;;;;5036278;28;20032;-74
2022/12/11 05:26:18;;;;;;;55.08;28.02;;;-4.10;99.90;;;;;;5033866;28;20488;-74
2022/12/11 05:28:45;;;;;;;58.25;27.83;;;-4.10;99.90;;;;;;5037378;28;20091;-74
2022/12/11 05:31:17;;;;;;;68.72;32.38;;;-4.20;99.90;;;;;;5030096;28;20494;-74
2022/12/11 05:33:44;;;;;;;69.72;30.63;;;-4.20;99.90;;;;;;5034396;28;20157;-74
2022/12/11 05:36:16;;;;;;;67.57;31.48;;;-4.10;99.90;;;;;;5029079;28;20082;-74
2022/12/11 05:38:41;;;;;;;73.45;32.65;;;-4.20;99.90;;;;;;5032910;28;20037;-74
2022/12/11 05:41:07;;;;;;;64.80;30.13;;;-4.20;99.90;;;;;;5040796;28;20033;-74
2022/12/11 05:43:35;;;;;;;70.53;29.83;;;-4.20;99.90;;;;;;5035974;28;20064;-74
2022/12/11 05:46:09;;;;;;;63.75;29.80;;;-4.20;99.90;;;;;;5027141;28;20127;-75
2022/12/11 05:48:35;;;;;;;54.38;27.75;;;-4.20;99.90;;;;;;5035648;28;20025;-75
2022/12/11 05:51:02;;;;;;;62.55;30.08;;;-4.20;99.90;;;;;;5029958;28;20454;-76
2022/12/11 05:53:28;;;;;;;59.83;30.42;;;-4.20;99.90;;;;;;5031561;28;20048;-75
2022/12/11 05:55:54;;;;;;;56.10;28.77;;;-4.20;99.90;;;;;;5039291;28;20024;-74
2022/12/11 05:58:20;;;;;;;52.03;29.17;;;-4.20;99.90;;;;;;5028673;28;20033;-75
2022/12/11 06:00:46;;;;;;;53.35;27.13;;;-4.30;99.90;;;;;;5038481;28;20486;-74
2022/12/11 06:03:12;;;;;;;50.83;28.67;;;-4.30;99.90;;;;;;5031428;28;20621;-75
2022/12/11 06:05:39;;;;;;;54.10;29.00;;;-4.40;99.90;;;;;;5027897;28;20495;-75
2022/12/11 06:08:05;;;;;;;53.90;27.30;;;-4.40;99.90;;;;;;5030421;28;20032;-74
2022/12/11 06:10:31;;;;;;;54.35;29.80;;;-4.40;99.90;;;;;;5027895;28;20060;-74
2022/12/11 06:12:57;;;;;;;51.88;30.27;;;-4.30;99.90;;;;;;5030559;28;20075;-73
2022/12/11 06:15:23;;;;;;;58.60;30.65;;;-4.20;99.90;;;;;;5028311;28;20025;-75
2022/12/11 06:17:48;;;;;;;54.40;30.13;;;-4.10;99.90;;;;;;5027703;28;20042;-73
2022/12/11 06:20:14;;;;;;;46.40;28.08;;;-4.00;99.90;;;;;;5027304;28;20065;-74
2022/12/11 06:22:40;;;;;;;51.70;28.35;;;-4.00;99.90;;;;;;5030810;28;20041;-74
2022/12/11 06:25:06;;;;;;;51.78;29.55;;;-4.00;99.90;;;;;;5041667;28;20033;-74
2022/12/11 06:27:31;;;;;;;51.70;28.73;;;-4.00;99.90;;;;;;5041265;28;20052;-73
2022/12/11 06:29:57;;;;;;;48.67;28.33;;;-4.00;99.90;;;;;;5028033;28;20045;-74
2022/12/11 06:32:23;;;;;;;50.55;28.65;;;-4.00;99.90;;;;;;4991116;28;1114071;-74
2022/12/11 06:34:48;;;;;;;49.13;28.52;;;-4.10;99.90;;;;;;5030972;28;20053;-74
2022/12/11 06:37:14;;;;;;;50.10;28.08;;;-4.00;99.90;;;;;;5028544;28;20041;-74
2022/12/11 06:39:39;;;;;;;46.17;25.80;;;-4.00;99.90;;;;;;5028305;28;20040;-74
2022/12/11 06:42:05;;;;;;;45.78;25.25;;;-3.90;99.90;;;;;;5029678;28;20041;-74
2022/12/11 06:44:30;;;;;;;46.40;25.52;;;-3.90;99.90;;;;;;5027903;28;20476;-74
2022/12/11 06:46:56;;;;;;;50.35;26.10;;;-3.90;99.90;;;;;;5041247;28;20037;-74
2022/12/11 06:49:22;;;;;;;42.58;25.33;;;-3.90;99.90;;;;;;5031016;28;20028;-74
2022/12/11 06:51:48;;;;;;;44.50;26.10;;;-4.00;99.90;;;;;;5029306;28;20029;-74
2022/12/11 06:54:13;;;;;;;45.45;26.17;;;-4.00;99.90;;;;;;5041769;28;20033;-74
2022/12/11 06:56:39;;;;;;;48.90;26.45;;;-4.00;99.90;;;;;;5038186;28;20160;-74
2022/12/11 06:59:06;;;;;;;45.05;25.80;;;-4.10;99.90;;;;;;5041498;28;20559;-74
2022/12/11 07:01:31;;;;;;;46.75;25.80;;;-4.00;99.90;;;;;;5041195;28;20017;-74
2022/12/11 07:03:59;;;;;;;45.78;26.13;;;-4.20;99.90;;;;;;5012970;28;20044;-75
2022/12/11 07:06:26;;;;;;;43.65;26.33;;;-4.20;99.90;;;;;;5022856;28;20087;-74
2022/12/11 07:08:52;;;;;;;41.65;25.98;;;-4.20;99.90;;;;;;5033473;28;20092;-74
2022/12/11 07:11:19;;;;;;;48.97;27.15;;;-4.20;99.90;;;;;;5064609;28;20452;-75
2022/12/11 07:13:45;;;;;;;47.15;26.65;;;-4.20;99.90;;;;;;5034173;28;20099;-74
2022/12/11 07:16:12;;;;;;;49.97;25.80;;;-4.20;99.90;;;;;;5032926;28;20040;-75
2022/12/11 07:18:40;;;;;;;49.78;26.98;;;-4.20;99.90;;;;;;5027153;28;20034;-74
2022/12/11 07:21:06;;;;;;;46.42;26.55;;;-4.20;99.90;;;;;;5033786;28;20025;-74
2022/12/11 07:23:34;;;;;;;44.50;26.00;;;-4.20;99.90;;;;;;5035703;28;20033;-74
2022/12/11 07:26:04;;;;;;;47.10;25.98;;;-4.30;99.90;;;;;;5039264;28;20035;-75
2022/12/11 07:28:29;;;;;;;50.20;27.08;;;-4.30;99.90;;;;;;5066582;28;20538;-75
2022/12/11 07:30:55;;;;;;;48.78;28.05;;;-4.40;99.90;;;;;;5042075;28;20033;-75
2022/12/11 07:33:20;;;;;;;50.95;27.52;;;-4.20;99.90;;;;;;5038648;28;20124;-74
2022/12/11 07:35:46;;;;;;;50.92;27.38;;;-4.20;99.90;;;;;;5038976;28;20597;-74
2022/12/11 07:38:12;;;;;;;48.67;26.52;;;-4.10;99.90;;;;;;5036754;28;20052;-75
2022/12/11 07:40:37;;;;;;;51.90;28.33;;;-4.10;99.90;;;;;;5038302;28;20127;-75
2022/12/11 07:43:03;;;;;;;40.33;25.23;;;-4.10;99.90;;;;;;5044174;28;20038;-75
2022/12/11 07:45:28;;;;;;;51.40;27.58;;;-4.20;99.90;;;;;;5032046;28;20041;-75
2022/12/11 07:47:54;;;;;;;47.72;25.55;;;-4.20;99.90;;;;;;5038034;28;20055;-74
2022/12/11 07:50:19;;;;;;;46.63;27.35;;;-4.30;99.90;;;;;;5040799;28;20545;-74
2022/12/11 07:52:45;;;;;;;44.22;25.70;;;-4.30;99.90;;;;;;5031721;28;20129;-75
2022/12/11 07:55:11;;;;;;;48.50;25.98;;;-4.30;99.90;;;;;;5038388;28;20037;-73
2022/12/11 07:57:36;;;;;;;46.50;24.58;;;-4.30;99.90;;;;;;5025964;28;20061;-75
2022/12/11 08:00:04;;;;;;;47.78;25.73;;;-4.30;99.90;;;;;;5028205;28;20033;-75
2022/12/11 08:02:29;;;;;;;48.78;26.23;;;-4.30;99.90;;;;;;5038299;28;20025;-74
2022/12/11 08:04:55;;;;;;;51.80;28.23;;;-4.30;99.90;;;;;;5031880;28;20753;-74
2022/12/11 08:07:20;;;;;;;50.00;26.15;;;-4.30;99.90;;;;;;5039129;28;20039;-75
2022/12/11 08:09:46;;;;;;;52.90;27.27;;;-4.30;99.90;;;;;;5038206;28;20752;-74
2022/12/11 08:12:12;;;;;;;50.10;27.35;;;-4.30;99.90;;;;;;5033965;28;20040;-74
2022/12/11 08:14:37;;;;;;;56.33;29.38;;;-4.30;99.90;;;;;;5036502;28;20495;-74
2022/12/11 08:17:03;;;;;;;54.88;30.02;;;-4.30;99.90;;;;;;5037714;28;20033;-74
2022/12/11 08:19:29;;;;;;;57.03;29.23;;;-4.30;99.90;;;;;;5033827;28;20057;-74
2022/12/11 08:21:54;;;;;;;52.95;28.63;;;-4.30;99.90;;;;;;5033026;28;20172;-75
2022/12/11 08:24:20;;;;;;;53.13;27.95;;;-4.30;99.90;;;;;;5038725;28;20434;-74
2022/12/11 08:26:47;;;;;;;50.28;28.33;;;-4.20;99.90;;;;;;5040868;28;20067;-74
2022/12/11 08:29:12;;;;;;;54.15;29.42;;;-4.20;99.90;;;;;;5035799;28;20484;-74
2022/12/11 08:31:39;;;;;;;69.25;37.65;;;-4.10;99.90;;;;;;5036819;28;20041;-74
2022/12/11 08:34:05;;;;;;;70.22;34.92;;;-4.10;99.90;;;;;;5037726;28;20567;-74
2022/12/11 08:36:31;;;;;;;50.50;30.40;;;-4.10;99.90;;;;;;5034259;28;20025;-75
2022/12/11 08:38:57;;;;;;;61.88;30.02;;;-4.10;99.90;;;;;;5037698;28;20033;-74
2022/12/11 08:41:28;;;;;;;58.38;31.20;;;-4.00;99.90;;;;;;5040942;28;20040;-74
2022/12/11 08:43:56;;;;;;;68.57;34.03;;;-3.80;99.90;;;;;;5039217;28;20021;-74
2022/12/11 08:46:24;;;;;;;57.15;30.13;;;-3.70;99.90;;;;;;5038748;28;20103;-74
2022/12/11 08:48:50;;;;;;;60.78;31.70;;;-3.70;99.90;;;;;;5060316;28;20042;-73
2022/12/11 08:51:19;;;;;;;66.35;33.55;;;-3.60;99.90;;;;;;5039518;28;20025;-74
2022/12/11 08:53:45;;;;;;;55.90;30.55;;;-3.60;99.90;;;;;;5035665;28;20036;-74
2022/12/11 08:56:16;;;;;;;57.50;30.17;;;-3.50;99.90;;;;;;5032835;28;20051;-75
2022/12/11 08:58:43;;;;;;;54.53;29.45;;;-3.50;99.90;;;;;;5044207;28;20127;-74
2022/12/11 09:01:11;;;;;;;54.35;30.88;;;-3.40;99.90;;;;;;5044491;28;20090;-74
2022/12/11 09:03:38;;;;;;;59.70;31.65;;;-3.20;99.90;;;;;;5033934;28;20032;-74
2022/12/11 09:06:06;;;;;;;55.38;32.58;;;-3.10;99.90;;;;;;5031160;28;20387;-74
2022/12/11 09:08:32;;;;;;;59.20;32.17;;;-3.00;99.90;;;;;;5049810;28;20046;-75
2022/12/11 09:11:05;;;;;;;55.65;31.30;;;-3.00;99.90;;;;;;5046960;28;20024;-74
2022/12/11 09:13:31;;;;;;;53.67;29.83;;;-2.90;99.90;;;;;;5043435;28;20384;-75
2022/12/11 09:15:57;;;;;;;59.05;32.85;;;-2.80;99.90;;;;;;5038640;28;20607;-74
2022/12/11 09:18:22;;;;;;;70.40;36.38;;;-2.80;99.90;;;;;;5049364;28;20057;-74
2022/12/11 09:20:56;;;;;;;67.55;36.75;;;-2.70;99.90;;;;;;5035773;28;20060;-74
2022/12/11 09:23:21;;;;;;;63.28;33.70;;;-2.70;99.90;;;;;;5040691;28;20120;-73
2022/12/11 09:25:47;;;;;;;63.65;34.63;;;-2.60;99.90;;;;;;5049104;28;20074;-74
2022/12/11 09:28:13;;;;;;;65.10;34.17;;;-2.60;99.90;;;;;;5033439;28;20388;-74
2022/12/11 09:30:38;;;;;;;62.03;33.90;;;-2.50;99.90;;;;;;5043402;28;20037;-75
2022/12/11 09:33:04;;;;;;;54.65;31.00;;;-2.40;99.90;;;;;;5042301;28;20041;-75
2022/12/11 09:35:29;;;;;;;50.67;29.33;;;-2.40;99.90;;;;;;5044520;28;20052;-74
2022/12/11 09:37:55;;;;;;;58.30;32.45;;;-2.20;99.90;;;;;;5068731;28;20032;-73
2022/12/11 09:40:20;;;;;;;74.65;41.70;;;-2.10;99.90;;;;;;5049192;28;20102;-74
2022/12/11 09:42:53;;;;;;;71.60;41.22;;;-2.00;99.90;;;;;;5036582;28;20037;-72
2022/12/11 09:45:19;;;;;;;69.63;41.45;;;-1.80;99.90;;;;;;5038676;28;20102;-74
2022/12/11 09:47:49;;;;;;;71.00;41.50;;;-1.70;99.90;;;;;;5047201;28;20032;-75
2022/12/11 09:50:29;;;;;;;56.50;34.35;;;-1.60;99.90;;;;;;5042714;28;21521;-74
2022/12/11 09:53:10;;;;;;;58.55;35.40;;;-1.50;99.90;;;;;;5058273;28;20120;-74
2022/12/11 09:56:03;;;;;;;56.78;37.65;;;-1.20;99.90;;;;;;5040539;28;20102;-74
2022/12/11 09:58:41;;;;;;;63.90;40.65;;;-0.70;99.90;;;;;;5047440;28;20495;-73
2022/12/11 10:01:40;;;;;;;72.45;43.25;;;-0.50;99.90;;;;;;5039401;28;20108;-73
2022/12/11 10:04:26;;;;;;;63.80;39.25;;;-0.40;99.90;;;;;;5035874;28;20025;-74
2022/12/11 10:07:14;;;;;;;64.95;37.53;;;-0.30;99.90;;;;;;5028750;28;20482;-74
2022/12/11 10:09:49;;;;;;;49.17;28.42;;;-0.20;99.90;;;;;;5036062;28;20033;-73
2022/12/11 10:12:44;;;;;;;46.25;28.55;;;-0.20;99.90;;;;;;5039452;28;20159;-74
2022/12/11 10:15:45;;;;;;;43.92;26.63;;;-0.10;99.90;;;;;;5045328;28;20032;-74
2022/12/11 10:18:20;;;;;;;37.40;21.85;;;0.00;99.90;;;;;;5018912;28;20439;-74
2022/12/11 10:20:47;;;;;;;35.90;22.98;;;0.10;99.90;;;;;;5042982;28;20036;-74
2022/12/11 10:23:20;;;;;;;38.00;23.50;;;0.20;99.90;;;;;;5038602;28;20042;-74
2022/12/11 10:25:53;;;;;;;41.45;23.90;;;0.20;99.90;;;;;;5044881;28;20518;-74
2022/12/11 10:28:19;;;;;;;38.53;23.02;;;0.10;99.90;;;;;;5042408;28;20033;-75
2022/12/11 10:30:54;;;;;;;39.42;24.45;;;0.00;99.90;;;;;;5042617;28;20036;-74
2022/12/11 10:33:25;;;;;;;39.58;22.33;;;0.00;99.90;;;;;;5033336;28;20033;-74
2022/12/11 10:35:55;;;;;;;37.72;22.77;;;-0.10;99.90;;;;;;5042486;28;20033;-73
2022/12/11 10:38:37;;;;;;;35.70;20.67;;;-0.10;99.90;;;;;;5039984;28;20021;-74
2022/12/11 10:41:03;;;;;;;34.15;20.63;;;-0.20;99.90;;;;;;5038148;28;20040;-73
2022/12/11 10:43:34;;;;;;;37.17;21.45;;;-0.20;99.90;;;;;;5039785;28;20066;-74
2022/12/11 10:46:00;;;;;;;39.33;21.60;;;-0.20;99.90;;;;;;5057090;28;20170;-74
2022/12/11 10:48:26;;;;;;;43.70;24.40;;;-0.10;99.90;;;;;;5041498;28;20107;-75
2022/12/11 10:51:04;;;;;;;43.75;25.20;;;0.00;99.90;;;;;;5036351;28;20116;-73
2022/12/11 10:53:31;;;;;;;68.05;37.75;;;0.10;99.90;;;;;;5032635;28;20408;-75
2022/12/11 10:55:57;;;;;;;85.45;44.22;;;0.10;99.90;;;;;;5034341;28;20483;-74
2022/12/11 10:58:27;;;;;;;83.22;42.60;;;0.00;99.90;;;;;;5036763;28;20034;-74
2022/12/11 11:01:06;;;;;;;86.63;43.58;;;0.00;99.90;;;;;;5036953;28;20106;-73
2022/12/11 11:03:34;;;;;;;117.13;52.63;;;0.00;99.90;;;;;;5038390;28;20041;-74
2022/12/11 11:06:17;;;;;;;174.02;75.45;;;-0.10;99.90;;;;;;5039946;28;20037;-74
2022/12/11 11:08:49;;;;;;;188.73;86.95;;;-0.20;99.90;;;;;;5043448;28;20035;-74
2022/12/11 11:11:28;;;;;;;199.15;89.95;;;-0.20;99.90;;;;;;5040638;28;20585;-75
2022/12/11 11:14:08;;;;;;;170.35;77.10;;;-0.10;99.90;;;;;;5064905;28;20049;-74
2022/12/11 11:16:36;;;;;;;142.65;65.68;;;-0.10;99.90;;;;;;5040097;28;20048;-74
2022/12/11 11:19:03;;;;;;;164.25;72.80;;;0.00;99.90;;;;;;5042274;28;20049;-74
2022/12/11 11:21:30;;;;;;;155.20;71.28;;;0.00;99.90;;;;;;5029195;28;20084;-73
2022/12/11 11:23:56;;;;;;;142.68;68.93;;;0.00;99.90;;;;;;5034496;28;20391;-75
2022/12/11 11:26:22;;;;;;;132.48;62.90;;;0.00;99.90;;;;;;5033028;28;20115;-73
2022/12/11 11:28:54;;;;;;;128.02;62.00;;;0.00;99.90;;;;;;5034403;28;20450;-74
2022/12/11 11:31:29;;;;;;;131.38;63.70;;;0.00;99.90;;;;;;5040684;28;20108;-75
2022/12/11 11:34:05;;;;;;;110.50;53.58;;;0.00;99.90;;;;;;5033119;28;20073;-74
2022/12/11 11:36:33;;;;;;;107.72;51.00;;;0.10;99.90;;;;;;5034911;28;20048;-75
2022/12/11 11:39:24;;;;;;;91.25;48.05;;;0.10;99.90;;;;;;5041787;28;20029;-74
2022/12/11 11:42:03;;;;;;;76.57;41.67;;;0.20;99.90;;;;;;5038570;28;20021;-76
2022/12/11 11:44:41;;;;;;;72.68;38.83;;;0.30;99.90;;;;;;5035443;28;20034;-74
2022/12/11 11:47:21;;;;;;;75.40;37.92;;;0.40;99.90;;;;;;5038988;28;21001;-75
2022/12/11 11:49:59;;;;;;;63.17;34.40;;;0.50;99.90;;;;;;5045068;28;20715;-75
2022/12/11 11:52:51;;;;;;;51.00;30.05;;;0.50;99.90;;;;;;5031905;28;20113;-76
2022/12/11 11:55:19;;;;;;;62.95;34.72;;;0.50;99.90;;;;;;5022633;28;20037;-77
2022/12/11 11:58:09;;;;;;;55.83;31.83;;;0.60;99.90;;;;;;5033780;28;20044;-75
2022/12/11 12:00:35;;;;;;;55.25;32.22;;;0.50;99.90;;;;;;5031839;28;20506;-75
2022/12/11 12:03:15;;;;;;;58.30;33.55;;;0.60;99.90;;;;;;5038556;28;20037;-76
2022/12/11 12:06:16;;;;;;;66.35;35.35;;;0.60;99.90;;;;;;5040396;28;20047;-76
2022/12/11 12:09:01;;;;;;;67.93;37.50;;;0.70;99.90;;;;;;5072545;28;20029;-75
2022/12/11 12:11:37;;;;;;;81.13;41.08;;;0.60;99.90;;;;;;5035724;28;20036;-73
2022/12/11 12:14:12;;;;;;;77.60;42.53;;;0.70;99.90;;;;;;5029555;28;20029;-73
2022/12/11 12:17:15;;;;;;;72.50;40.22;;;0.70;99.90;;;;;;5034738;28;20032;-74
2022/12/11 12:19:53;;;;;;;66.55;37.60;;;0.80;99.90;;;;;;5030518;28;20111;-73
2022/12/11 12:22:48;;;;;;;72.57;39.80;;;0.80;99.90;;;;;;5045735;28;20028;-73
2022/12/11 12:25:38;;;;;;;66.85;38.13;;;0.90;99.90;;;;;;5038842;28;20110;-73
2022/12/11 12:28:12;;;;;;;;;;;1.00;99.90;;;;;;5038121;28;20025;-74
2022/12/11 12:31:01;;;;;;;58.38;34.33;;;1.10;99.90;;;;;;5037307;28;19930;-73
2022/12/11 12:33:55;;;;;;;64.55;37.92;;;1.10;99.90;;;;;;5041655;28;20106;-74
2022/12/11 12:37:02;;;;;;;67.93;41.88;;;1.20;99.90;;;;;;5036513;28;20704;-74
2022/12/11 12:39:35;;;;;;;73.00;41.50;;;1.20;99.90;;;;;;5032981;28;20045;-73
2022/12/11 12:42:10;;;;;;;76.25;45.33;;;1.30;99.90;;;;;;5038271;28;20048;-73
2022/12/11 12:45:25;;;;;;;76.50;44.55;;;1.40;99.90;;;;;;5034031;28;20033;-74
2022/12/11 12:47:51;;;;;;;92.50;52.08;;;1.50;99.90;;;;;;5032248;28;20053;-75
2022/12/11 12:50:21;;;;;;;66.95;40.00;;;1.60;99.90;;;;;;5031881;28;20164;-74
2022/12/11 12:52:47;;;;;;;74.13;42.53;;;1.50;99.90;;;;;;5037342;28;20080;-74
2022/12/11 12:55:23;;;;;;;67.78;42.72;;;1.60;99.90;;;;;;5038842;28;20040;-75
2022/12/11 12:57:56;;;;;;;64.35;38.30;;;1.50;99.90;;;;;;5034368;28;20036;-75